Terminal Aerodrome Forecast
Issued by NWS

Home | Current Version | Previous Version | Text Only | Print | Product List | Glossary Off
Versions: 1 2 3 4 5 6 7 8 9 10 11 12 13 14 15 16 17 18 19 20

718
FTUS43 KFGF 212339
TAFBJI
TAF
KBJI 212339Z 2200/2224 30010G18KT P6SM -SN BKN020 OVC025
     FM220200 28007KT P6SM SCT030
     FM221700 18008KT P6SM SCT020 BKN030=

USA.gov is the U.S. government's official web portal to all federal, state and local government web resources and services.